createdAt,value
2018-12-15T00:01:35.809Z,69.12
2018-12-15T00:04:06.179Z,68.33
2018-12-15T00:06:36.652Z,67.07
2018-12-15T00:09:08.387Z,67.57
2018-12-15T00:11:39.131Z,67.13
2018-12-15T00:14:09.692Z,66.32
2018-12-15T00:16:40.522Z,66.30
2018-12-15T00:19:11.427Z,66.67
2018-12-15T00:21:42.594Z,66.19
2018-12-15T00:24:13.263Z,66.59
2018-12-15T00:26:43.689Z,67.33
2018-12-15T00:29:15.423Z,68.71
2018-12-15T00:31:46.377Z,68.25
2018-12-15T00:34:16.906Z,68.27
2018-12-15T00:36:47.826Z,67.20
2018-12-15T00:39:18.966Z,67.23
2018-12-15T00:41:49.645Z,67.21
2018-12-15T00:44:20.455Z,66.29
2018-12-15T00:46:51.474Z,66.45
2018-12-15T00:49:22.999Z,66.00
2018-12-15T00:51:53.520Z,66.84
2018-12-15T00:54:24.481Z,67.34
2018-12-15T00:56:55.125Z,67.48
2018-12-15T00:59:25.748Z,67.19
2018-12-15T01:01:56.389Z,66.35
2018-12-15T01:04:27.334Z,66.33
2018-12-15T01:06:58.029Z,66.45
2018-12-15T01:09:30.916Z,65.96
2018-12-15T01:12:01.236Z,65.74
2018-12-15T01:14:32.368Z,65.98
2018-12-15T01:17:02.762Z,66.95
2018-12-15T01:19:33.573Z,67.12
2018-12-15T01:22:04.372Z,69.11
2018-12-15T01:24:35.575Z,67.85
2018-12-15T01:27:06.599Z,67.18
2018-12-15T01:29:38.509Z,66.36
2018-12-15T01:32:09.022Z,66.05
2018-12-15T01:34:39.486Z,64.96
2018-12-15T01:37:10.209Z,65.93
2018-12-15T01:39:41.774Z,66.80
2018-12-15T01:42:13.020Z,66.20
2018-12-15T01:44:43.992Z,67.19
2018-12-15T01:47:14.850Z,67.24
2018-12-15T01:49:46.490Z,66.56
2018-12-15T01:52:17.087Z,66.94
2018-12-15T01:54:47.419Z,66.53
2018-12-15T01:57:17.882Z,65.40
2018-12-15T01:59:48.992Z,65.85
2018-12-15T02:02:19.513Z,65.32
2018-12-15T02:04:49.923Z,66.09
2018-12-15T02:07:21.087Z,67.00
2018-12-15T02:09:55.593Z,67.23
2018-12-15T02:12:26.428Z,66.53
2018-12-15T02:14:57.322Z,68.67
2018-12-15T02:17:33.458Z,67.37
2018-12-15T02:20:04.836Z,66.38
2018-12-15T02:22:35.955Z,65.98
2018-12-15T02:25:06.714Z,65.64
2018-12-15T02:27:37.316Z,65.70
2018-12-15T02:30:08.888Z,66.91
2018-12-15T02:32:39.697Z,68.36
2018-12-15T02:35:10.635Z,67.30
2018-12-15T02:37:41.567Z,66.81
2018-12-15T02:40:13.056Z,67.45
2018-12-15T02:42:43.759Z,67.56
2018-12-15T02:45:14.790Z,67.35
2018-12-15T02:47:45.825Z,67.65
2018-12-15T02:50:17.127Z,68.22
2018-12-15T02:52:47.921Z,69.22
2018-12-15T02:55:18.490Z,67.24
2018-12-15T02:57:49.238Z,67.04
2018-12-15T03:00:20.575Z,67.65
2018-12-15T03:02:51.488Z,67.83
2018-12-15T03:05:21.800Z,67.56
2018-12-15T03:07:52.049Z,67.25
2018-12-15T03:10:23.113Z,67.31
2018-12-15T03:12:53.324Z,66.40
2018-12-15T03:15:24.046Z,66.57
2018-12-15T03:17:55.230Z,66.79
2018-12-15T03:20:26.282Z,66.85
2018-12-15T03:22:56.889Z,66.68
2018-12-15T03:25:28.050Z,66.71
2018-12-15T03:27:59.166Z,67.81
2018-12-15T03:30:30.238Z,67.52
2018-12-15T03:33:00.909Z,66.79
2018-12-15T03:35:31.558Z,66.90
2018-12-15T03:38:02.651Z,67.41
2018-12-15T03:40:33.522Z,67.25
2018-12-15T03:43:03.996Z,67.66
2018-12-15T03:45:34.971Z,67.91
2018-12-15T03:48:05.888Z,68.39
2018-12-15T03:50:37.846Z,67.63
2018-12-15T03:53:08.298Z,67.66
2018-12-15T03:55:38.943Z,68.23
2018-12-15T03:58:09.536Z,68.66
2018-12-15T04:00:40.492Z,67.96
2018-12-15T04:03:10.727Z,66.90
2018-12-15T04:05:41.401Z,67.18
2018-12-15T04:08:11.699Z,66.59
2018-12-15T04:10:43.404Z,66.82
2018-12-15T04:13:14.134Z,68.06
2018-12-15T04:15:44.653Z,67.19
2018-12-15T04:18:15.064Z,66.68
2018-12-15T04:20:46.367Z,66.54
2018-12-15T04:23:17.253Z,66.64
2018-12-15T04:25:48.060Z,67.02
2018-12-15T04:28:18.688Z,68.36
2018-12-15T04:30:49.842Z,67.86
2018-12-15T04:33:20.511Z,67.03
2018-12-15T04:35:51.034Z,66.93
2018-12-15T04:38:21.530Z,66.61
2018-12-15T04:40:52.805Z,68.12
2018-12-15T04:43:23.599Z,66.94
2018-12-15T04:45:54.440Z,67.89
2018-12-15T04:48:26.046Z,68.62
2018-12-15T04:50:57.262Z,67.64
2018-12-15T04:53:28.690Z,67.05
2018-12-15T04:55:59.289Z,66.34
2018-12-15T04:58:29.780Z,66.10
2018-12-15T05:01:01.564Z,66.47
2018-12-15T05:03:32.328Z,66.70
2018-12-15T05:06:03.160Z,67.63
2018-12-15T05:08:33.556Z,68.60
2018-12-15T05:11:05.791Z,70.30
2018-12-15T05:13:36.444Z,70.07
2018-12-15T05:16:07.474Z,69.30
2018-12-15T05:18:38.432Z,68.19
2018-12-15T05:21:10.143Z,67.12
2018-12-15T05:23:41.318Z,67.30
2018-12-15T05:26:11.718Z,68.41
2018-12-15T05:28:42.131Z,70.46
2018-12-15T05:31:13.790Z,69.22
2018-12-15T05:33:44.004Z,68.18
2018-12-15T05:36:15.269Z,68.50
2018-12-15T05:38:45.650Z,68.97
2018-12-15T05:41:17.356Z,68.54
2018-12-15T05:43:48.010Z,68.82
2018-12-15T05:46:19.037Z,69.36
2018-12-15T05:48:49.788Z,68.39
2018-12-15T05:51:21.136Z,68.32
2018-12-15T05:53:51.526Z,69.10
2018-12-15T05:56:22.316Z,68.94
2018-12-15T05:58:52.905Z,67.62
2018-12-15T06:01:23.586Z,67.50
2018-12-15T06:03:53.931Z,68.31
2018-12-15T06:06:24.723Z,68.47
2018-12-15T06:08:55.093Z,68.58
2018-12-15T06:11:26.054Z,68.24
2018-12-15T06:13:56.138Z,67.23
2018-12-15T06:16:26.583Z,68.13
2018-12-15T06:18:57.287Z,67.72
2018-12-15T06:21:28.810Z,68.55
2018-12-15T06:23:59.545Z,68.52
2018-12-15T06:26:29.854Z,68.34
2018-12-15T06:28:59.984Z,68.66
2018-12-15T06:31:30.374Z,69.59
2018-12-15T06:34:01.041Z,68.43
2018-12-15T06:36:31.535Z,66.95
2018-12-15T06:39:01.951Z,67.72
2018-12-15T06:41:32.893Z,67.49
2018-12-15T06:44:03.156Z,67.29
2018-12-15T06:46:33.581Z,67.32
2018-12-15T06:49:03.918Z,67.64
2018-12-15T06:51:37.444Z,67.61
2018-12-15T06:54:07.910Z,67.97
2018-12-15T06:56:38.220Z,68.62
2018-12-15T06:59:08.884Z,66.38
2018-12-15T07:01:40.406Z,67.39
2018-12-15T07:04:10.952Z,67.85
2018-12-15T07:06:42.125Z,68.72
2018-12-15T07:09:12.830Z,70.23
2018-12-15T07:11:44.150Z,71.74
2018-12-15T07:14:14.490Z,72.29
2018-12-15T07:16:44.982Z,70.58
2018-12-15T07:19:16.062Z,69.88
2018-12-15T07:21:47.637Z,68.78
2018-12-15T07:24:17.864Z,68.89
2018-12-15T07:26:48.258Z,69.39
2018-12-15T07:29:18.575Z,69.82
2018-12-15T07:31:49.497Z,69.24
2018-12-15T07:34:19.955Z,68.90
2018-12-15T07:36:50.656Z,68.24
2018-12-15T07:39:21.191Z,67.54
2018-12-15T07:41:51.844Z,67.91
2018-12-15T07:44:22.372Z,68.17
2018-12-15T07:46:52.694Z,68.52
2018-12-15T07:49:22.924Z,67.61
2018-12-15T07:51:53.564Z,67.88
2018-12-15T07:54:23.816Z,68.41
2018-12-15T07:56:54.105Z,67.77
2018-12-15T07:59:24.531Z,68.10
2018-12-15T08:01:56.169Z,68.33
2018-12-15T08:04:26.181Z,67.51
2018-12-15T08:06:56.492Z,66.78
2018-12-15T08:09:26.958Z,67.31
2018-12-15T08:12:02.446Z,68.54
2018-12-15T08:14:32.899Z,68.54
2018-12-15T08:17:03.409Z,68.08
2018-12-15T08:19:34.092Z,67.52
2018-12-15T08:22:04.781Z,67.86
2018-12-15T08:24:35.172Z,67.86
2018-12-15T08:27:05.544Z,67.62
2018-12-15T08:29:35.953Z,66.45
2018-12-15T08:32:06.672Z,67.58
2018-12-15T08:34:37.139Z,67.58
2018-12-15T08:37:07.544Z,67.47
2018-12-15T08:39:37.634Z,67.08
2018-12-15T08:42:08.428Z,67.90
2018-12-15T08:44:38.700Z,67.97
2018-12-15T08:47:09.015Z,67.95
2018-12-15T08:49:39.510Z,68.07
2018-12-15T08:52:10.912Z,66.76
2018-12-15T08:54:41.443Z,68.86
2018-12-15T08:57:16.015Z,67.06
2018-12-15T08:59:46.373Z,67.20
2018-12-15T09:02:17.175Z,67.07
2018-12-15T09:04:47.706Z,66.39
2018-12-15T09:07:17.852Z,65.79
2018-12-15T09:09:48.503Z,65.75
2018-12-15T09:12:21.088Z,65.59
2018-12-15T09:14:52.354Z,64.99
2018-12-15T09:17:23.080Z,65.72
2018-12-15T09:19:53.585Z,64.80
2018-12-15T09:22:24.190Z,65.21
2018-12-15T09:24:55.645Z,65.02
2018-12-15T09:27:26.972Z,65.27
2018-12-15T09:29:57.218Z,64.90
2018-12-15T09:32:28.745Z,66.53
2018-12-15T09:34:59.779Z,65.68
2018-12-15T09:37:30.687Z,65.74
2018-12-15T09:40:01.324Z,64.83
2018-12-15T09:42:32.900Z,66.85
2018-12-15T09:45:03.796Z,66.57
2018-12-15T09:47:34.235Z,66.10
2018-12-15T09:50:04.962Z,66.63
2018-12-15T09:52:35.700Z,67.77
2018-12-15T09:55:06.558Z,67.55
2018-12-15T09:57:37.408Z,66.89
2018-12-15T10:00:08.040Z,67.57
2018-12-15T10:02:39.756Z,67.55
2018-12-15T10:05:10.489Z,66.47
2018-12-15T10:07:41.979Z,66.75
2018-12-15T10:10:12.885Z,66.31
2018-12-15T10:12:44.343Z,66.38
2018-12-15T10:15:14.715Z,65.30
2018-12-15T10:17:45.076Z,66.48
2018-12-15T10:20:15.535Z,66.08
2018-12-15T10:22:47.397Z,67.22
2018-12-15T10:25:17.667Z,66.21
2018-12-15T10:27:47.987Z,65.32
2018-12-15T10:30:23.253Z,65.65
2018-12-15T10:32:55.223Z,67.12
2018-12-15T10:35:26.144Z,68.38
2018-12-15T10:37:56.583Z,68.58
2018-12-15T10:40:26.788Z,68.70
2018-12-15T10:42:57.668Z,67.70
2018-12-15T10:45:28.046Z,66.58
2018-12-15T10:47:58.598Z,66.24
2018-12-15T10:50:29.158Z,65.77
2018-12-15T10:53:00.228Z,66.40
2018-12-15T10:55:37.412Z,64.75
2018-12-15T10:58:07.633Z,66.21
2018-12-15T11:01:45.271Z,64.37
2018-12-15T11:04:15.888Z,65.24
2018-12-15T11:06:46.276Z,65.71
2018-12-15T11:09:16.936Z,63.80
2018-12-15T11:11:47.155Z,64.74
2018-12-15T11:14:21.465Z,64.08
2018-12-15T11:16:51.960Z,63.35
2018-12-15T11:19:22.207Z,63.07
2018-12-15T11:21:52.703Z,62.94
2018-12-15T11:24:23.259Z,64.50
2018-12-15T11:26:54.001Z,63.76
2018-12-15T11:29:24.141Z,63.99
2018-12-15T11:31:54.440Z,65.53
2018-12-15T11:34:26.004Z,64.41
2018-12-15T11:36:56.421Z,63.85
2018-12-15T11:39:27.156Z,65.12
2018-12-15T11:41:57.812Z,65.43
2018-12-15T11:44:28.927Z,64.22
2018-12-15T11:46:59.463Z,64.09
2018-12-15T11:49:30.195Z,65.08
2018-12-15T11:52:00.615Z,65.08
2018-12-15T11:54:31.588Z,65.45
2018-12-15T11:57:02.359Z,65.16
2018-12-15T11:59:33.232Z,65.74
2018-12-15T12:02:03.983Z,66.34
2018-12-15T12:04:34.903Z,65.74
2018-12-15T12:07:05.516Z,65.48
2018-12-15T12:09:36.013Z,66.33
2018-12-15T12:12:06.795Z,65.79
2018-12-15T12:14:37.344Z,65.15
2018-12-15T12:17:07.650Z,64.59
2018-12-15T12:19:38.069Z,65.75
2018-12-15T12:22:08.579Z,66.27
2018-12-15T12:24:39.004Z,67.34
2018-12-15T12:27:09.596Z,66.79
2018-12-15T12:29:40.180Z,67.67
2018-12-15T12:32:10.612Z,69.44
2018-12-15T12:34:41.731Z,69.27
2018-12-15T12:37:12.259Z,68.89
2018-12-15T12:39:42.951Z,69.12
2018-12-15T12:42:13.343Z,68.56
2018-12-15T12:44:44.122Z,68.17
2018-12-15T12:47:14.262Z,67.99
2018-12-15T12:49:44.834Z,68.18
2018-12-15T12:52:15.354Z,68.81
2018-12-15T12:54:46.783Z,69.05
2018-12-15T12:57:17.479Z,68.95
2018-12-15T12:59:47.779Z,68.91
2018-12-15T13:02:18.056Z,68.81
2018-12-15T13:04:48.618Z,68.53
2018-12-15T13:07:19.014Z,71.00
2018-12-15T13:09:49.439Z,71.15
2018-12-15T13:12:20.111Z,71.24
2018-12-15T13:14:50.980Z,70.73
2018-12-15T13:17:21.412Z,68.87
2018-12-15T13:19:52.058Z,68.42
2018-12-15T13:22:22.626Z,67.39
2018-12-15T13:24:53.342Z,68.05
2018-12-15T13:27:23.959Z,68.48
2018-12-15T13:29:54.917Z,69.34
2018-12-15T13:32:25.549Z,70.67
2018-12-15T13:34:56.272Z,69.79
2018-12-15T13:37:26.907Z,68.88
2018-12-15T13:39:57.462Z,69.05
2018-12-15T13:42:28.072Z,68.10
2018-12-15T13:44:59.975Z,68.21
2018-12-15T13:47:30.419Z,68.78
2018-12-15T13:50:01.180Z,69.54
2018-12-15T13:52:31.840Z,69.31
2018-12-15T13:55:02.774Z,69.69
2018-12-15T13:57:33.324Z,68.61
2018-12-15T14:00:04.270Z,68.77
2018-12-15T14:02:34.529Z,68.19
2018-12-15T14:05:05.167Z,68.23
2018-12-15T14:07:35.434Z,68.48
2018-12-15T14:10:06.001Z,67.38
2018-12-15T14:12:36.578Z,68.91
2018-12-15T14:15:08.421Z,69.05
2018-12-15T14:17:38.892Z,67.26
2018-12-15T14:20:09.580Z,67.98
2018-12-15T14:22:40.196Z,68.20
2018-12-15T14:25:10.854Z,68.90
2018-12-15T14:27:41.578Z,67.84
2018-12-15T14:30:12.279Z,69.43
2018-12-15T14:32:42.852Z,70.19
2018-12-15T14:35:13.460Z,70.63
2018-12-15T14:37:43.987Z,71.04
2018-12-15T14:40:14.410Z,70.60
2018-12-15T14:42:44.984Z,71.13
2018-12-15T14:45:16.086Z,71.59
2018-12-15T14:47:46.409Z,71.39
2018-12-15T14:50:23.171Z,68.58
2018-12-15T14:52:48.898Z,67.90
2018-12-15T14:55:19.743Z,68.25
2018-12-15T14:57:50.399Z,67.76
2018-12-15T15:00:20.741Z,68.49
2018-12-15T15:02:51.384Z,68.17
2018-12-15T15:05:22.564Z,68.63
2018-12-15T15:07:52.996Z,69.07
2018-12-15T15:10:23.389Z,68.94
2018-12-15T15:12:53.692Z,67.95
2018-12-15T15:15:24.667Z,68.28
2018-12-15T15:17:55.096Z,68.77
2018-12-15T15:20:29.745Z,68.34
2018-12-15T15:22:58.110Z,67.58
2018-12-15T15:25:28.647Z,68.23
2018-12-15T15:27:59.308Z,68.39
2018-12-15T15:30:29.911Z,70.28
2018-12-15T15:33:00.175Z,70.05
2018-12-15T15:35:31.683Z,68.88
2018-12-15T15:38:33.648Z,69.96
2018-12-15T15:41:04.094Z,70.56
2018-12-15T15:43:34.512Z,70.09
2018-12-15T15:46:04.975Z,69.88
2018-12-15T15:48:35.315Z,70.13
2018-12-15T15:51:06.101Z,69.96
2018-12-15T15:53:37.026Z,70.69
2018-12-15T15:56:07.769Z,70.59
2018-12-15T15:58:37.840Z,70.04
2018-12-15T16:01:07.550Z,71.47
2018-12-15T16:03:38.022Z,71.54
2018-12-15T16:06:07.886Z,71.71
2018-12-15T16:08:37.698Z,72.41
2018-12-15T16:11:07.439Z,71.54
2018-12-15T16:13:37.111Z,71.28
2018-12-15T16:16:16.503Z,70.39
2018-12-15T16:18:46.292Z,70.73
2018-12-15T16:21:15.951Z,70.20
2018-12-15T16:23:46.278Z,70.19
2018-12-15T16:26:15.979Z,70.04
2018-12-15T16:28:45.753Z,70.46
2018-12-15T16:31:15.339Z,70.40
2018-12-15T16:33:45.083Z,70.87
2018-12-15T16:36:14.844Z,69.77
2018-12-15T16:38:44.547Z,71.68
2018-12-15T16:41:14.239Z,70.97
2018-12-15T16:43:43.912Z,69.97
2018-12-15T16:46:13.563Z,70.52
2018-12-15T16:48:43.382Z,70.60
2018-12-15T16:51:13.114Z,70.51
2018-12-15T16:53:42.889Z,71.03
2018-12-15T16:56:12.564Z,71.21
2018-12-15T16:58:42.835Z,71.56
2018-12-15T17:01:12.532Z,70.27
2018-12-15T17:03:42.201Z,70.82
2018-12-15T17:06:11.788Z,70.52
2018-12-15T17:08:41.423Z,69.27
2018-12-15T17:11:11.101Z,69.91
2018-12-15T17:13:40.759Z,70.35
2018-12-15T17:16:10.416Z,70.18
2018-12-15T17:18:40.093Z,70.55
2018-12-15T17:21:09.661Z,70.43
2018-12-15T17:23:39.356Z,70.75
2018-12-15T17:26:08.923Z,71.64
2018-12-15T17:28:38.477Z,71.34
2018-12-15T17:31:08.124Z,71.38
2018-12-15T17:33:37.799Z,72.28
2018-12-15T17:36:07.489Z,71.92
2018-12-15T17:38:37.139Z,71.79
2018-12-15T17:41:06.801Z,71.69
2018-12-15T17:43:36.447Z,71.66
2018-12-15T17:46:06.098Z,72.84
2018-12-15T17:48:36.015Z,74.94
2018-12-15T17:51:05.685Z,75.14
2018-12-15T17:53:35.336Z,73.23
2018-12-15T17:56:05.039Z,72.79
2018-12-15T17:58:34.625Z,72.24
2018-12-15T18:01:04.872Z,73.81
2018-12-15T18:03:34.705Z,73.05
2018-12-15T18:06:04.443Z,72.13
2018-12-15T18:08:34.174Z,72.82
2018-12-15T18:11:03.936Z,72.01
2018-12-15T18:13:33.768Z,72.06
2018-12-15T18:16:03.439Z,71.42
2018-12-15T18:18:33.110Z,71.40
2018-12-15T18:21:02.928Z,70.97
2018-12-15T18:23:32.700Z,72.17
2018-12-15T18:26:02.356Z,71.44
2018-12-15T18:28:32.019Z,72.31
2018-12-15T18:31:01.553Z,72.02
2018-12-15T18:33:36.909Z,71.37
2018-12-15T18:36:03.124Z,71.34
2018-12-15T18:38:33.039Z,71.82
2018-12-15T18:41:02.693Z,71.04
2018-12-15T18:43:32.779Z,70.24
2018-12-15T18:46:02.511Z,71.09
2018-12-15T18:48:32.226Z,71.78
2018-12-15T18:51:01.989Z,73.37
2018-12-15T18:53:31.724Z,73.28
2018-12-15T18:56:01.439Z,72.50
2018-12-15T18:58:31.143Z,71.71
2018-12-15T19:01:00.914Z,73.75
2018-12-15T19:03:30.858Z,73.33
2018-12-15T19:06:00.648Z,73.39
2018-12-15T19:08:30.324Z,72.66
2018-12-15T19:11:00.082Z,73.09
2018-12-15T19:13:29.734Z,72.67
2018-12-15T19:15:59.408Z,72.08
2018-12-15T19:18:29.182Z,72.13
2018-12-15T19:20:58.925Z,71.79
2018-12-15T19:23:28.595Z,71.67
2018-12-15T19:25:58.275Z,71.36
2018-12-15T19:28:28.587Z,71.79
2018-12-15T19:30:59.143Z,76.43
2018-12-15T19:33:29.546Z,74.45
2018-12-15T19:36:00.202Z,74.85
2018-12-15T19:38:30.738Z,73.07
2018-12-15T19:41:01.488Z,72.87
2018-12-15T19:43:32.217Z,73.04
2018-12-15T19:46:02.874Z,72.29
2018-12-15T19:48:33.582Z,71.65
2018-12-15T19:51:04.119Z,71.30
2018-12-15T19:53:34.711Z,70.79
2018-12-15T19:56:05.070Z,71.19
2018-12-15T19:58:35.589Z,70.89
2018-12-15T20:01:06.201Z,69.87
2018-12-15T20:03:37.069Z,70.81
2018-12-15T20:06:07.880Z,72.02
2018-12-15T20:08:38.668Z,71.40
2018-12-15T20:11:09.180Z,70.93
2018-12-15T20:13:40.288Z,70.70
2018-12-15T20:16:11.105Z,70.64
2018-12-15T20:18:41.665Z,69.82
2018-12-15T20:21:12.275Z,69.32
2018-12-15T20:23:43.120Z,69.17
2018-12-15T20:26:13.465Z,69.61
2018-12-15T20:28:43.845Z,70.11
2018-12-15T20:31:14.465Z,70.77
2018-12-15T20:33:46.247Z,72.57
2018-12-15T20:36:16.750Z,71.32
2018-12-15T20:38:47.064Z,69.74
2018-12-15T20:41:17.485Z,68.85
2018-12-15T20:43:48.415Z,69.66
2018-12-15T20:46:19.004Z,68.51
2018-12-15T20:48:48.690Z,68.58
2018-12-15T20:51:19.236Z,68.45
2018-12-15T20:53:50.120Z,68.46
2018-12-15T20:56:20.564Z,68.52
2018-12-15T20:58:51.184Z,70.20
2018-12-15T21:01:21.484Z,70.63
2018-12-15T21:03:51.926Z,70.59
2018-12-15T21:06:21.987Z,69.71
2018-12-15T21:08:52.831Z,69.11
2018-12-15T21:11:24.283Z,69.78
2018-12-15T21:13:54.995Z,69.72
2018-12-15T21:16:25.366Z,69.98
2018-12-15T21:18:55.714Z,69.35
2018-12-15T21:21:26.319Z,69.31
2018-12-15T21:23:57.847Z,69.61
2018-12-15T21:26:28.449Z,71.91
2018-12-15T21:28:59.215Z,71.42
2018-12-15T21:31:29.718Z,69.86
2018-12-15T21:34:07.552Z,68.93
2018-12-15T21:36:33.364Z,70.24
2018-12-15T21:39:04.081Z,70.28
2018-12-15T21:41:34.367Z,71.14
2018-12-15T21:44:05.760Z,71.10
2018-12-15T21:46:36.102Z,71.03
2018-12-15T21:49:06.676Z,70.77
2018-12-15T21:51:37.064Z,69.83
2018-12-15T21:54:07.684Z,69.25
2018-12-15T21:56:38.423Z,68.88
2018-12-15T21:59:08.479Z,69.19
2018-12-15T22:01:39.231Z,70.87
2018-12-15T22:04:10.656Z,70.36
2018-12-15T22:06:41.404Z,70.70
2018-12-15T22:09:11.952Z,70.19
2018-12-15T22:11:42.589Z,69.58
2018-12-15T22:14:13.326Z,68.02
2018-12-15T22:16:43.859Z,69.30
2018-12-15T22:19:14.593Z,69.33
2018-12-15T22:21:44.871Z,69.28
2018-12-15T22:24:15.755Z,69.49
2018-12-15T22:26:46.176Z,68.65
2018-12-15T22:29:16.643Z,71.19
2018-12-15T22:31:46.907Z,72.20
2018-12-15T22:34:17.787Z,71.22
2018-12-15T22:36:48.376Z,70.13
2018-12-15T22:39:18.921Z,69.70
2018-12-15T22:41:49.754Z,69.24
2018-12-15T22:44:20.485Z,70.59
2018-12-15T22:46:50.994Z,71.72
2018-12-15T22:49:21.440Z,72.70
2018-12-15T22:51:52.096Z,71.86
2018-12-15T22:54:23.245Z,71.13
2018-12-15T22:56:53.843Z,69.61
2018-12-15T22:59:24.245Z,70.21
2018-12-15T23:01:54.895Z,69.21
2018-12-15T23:04:25.842Z,70.23
2018-12-15T23:06:55.911Z,71.67
2018-12-15T23:09:26.401Z,70.24
2018-12-15T23:11:57.147Z,69.89
2018-12-15T23:14:27.995Z,70.29
2018-12-15T23:16:58.219Z,71.16
2018-12-15T23:19:28.526Z,71.55
2018-12-15T23:21:58.613Z,72.41
2018-12-15T23:24:29.435Z,75.88
2018-12-15T23:26:59.774Z,75.11
2018-12-15T23:29:29.961Z,75.77
2018-12-15T23:32:00.337Z,74.90
2018-12-15T23:34:30.787Z,72.93
2018-12-15T23:37:01.279Z,72.85
2018-12-15T23:39:31.728Z,72.28
2018-12-15T23:42:02.248Z,71.75
2018-12-15T23:44:33.527Z,70.72
2018-12-15T23:47:03.945Z,70.80
2018-12-15T23:49:34.553Z,71.31
2018-12-15T23:52:04.964Z,70.92
2018-12-15T23:54:36.063Z,69.99
2018-12-15T23:57:06.691Z,70.79
2018-12-15T23:59:37.118Z,72.22
